createdAt,value
2024-01-15T00:02:11.774Z,91.21
2024-01-15T00:04:39.086Z,91.70
2024-01-15T00:07:06.857Z,90.59
2024-01-15T00:09:34.668Z,89.42
2024-01-15T00:12:02.889Z,90.24
2024-01-15T00:14:31.045Z,92.99
2024-01-15T00:17:00.140Z,91.27
2024-01-15T00:19:28.512Z,92.31
2024-01-15T00:21:56.283Z,91.52
2024-01-15T00:24:24.187Z,93.64
2024-01-15T00:26:51.907Z,92.77
2024-01-15T00:29:19.604Z,92.04
2024-01-15T00:31:47.427Z,92.38
2024-01-15T00:34:16.536Z,91.93
2024-01-15T00:36:44.402Z,91.82
2024-01-15T00:39:12.915Z,93.44
2024-01-15T00:41:40.609Z,91.90
2024-01-15T00:44:08.641Z,92.44
2024-01-15T00:46:45.579Z,92.08
2024-01-15T00:49:14.354Z,92.74
2024-01-15T00:51:43.809Z,91.73
2024-01-15T00:54:11.596Z,92.61
2024-01-15T00:56:39.557Z,92.81
2024-01-15T00:59:07.262Z,92.55
2024-01-15T01:01:35.154Z,90.56
2024-01-15T01:04:02.973Z,91.13
2024-01-15T01:06:33.482Z,91.68
2024-01-15T01:09:03.452Z,91.83
2024-01-15T01:11:31.173Z,89.64
2024-01-15T01:13:58.873Z,89.33
2024-01-15T01:16:26.553Z,88.96
2024-01-15T01:18:54.469Z,90.82
2024-01-15T01:21:22.320Z,91.20
2024-01-15T01:23:50.027Z,91.29
2024-01-15T01:26:19.271Z,91.53
2024-01-15T01:28:46.909Z,90.90
2024-01-15T01:31:14.694Z,90.13
2024-01-15T01:33:42.515Z,88.84
2024-01-15T01:36:11.321Z,90.03
2024-01-15T01:38:39.297Z,90.30
2024-01-15T01:41:07.072Z,90.34
2024-01-15T01:43:36.054Z,90.89
2024-01-15T01:46:04.955Z,91.80
2024-01-15T01:48:33.956Z,92.37
2024-01-15T01:51:04.296Z,92.73
2024-01-15T01:53:34.015Z,92.33
2024-01-15T01:56:02.049Z,92.54
2024-01-15T01:58:30.864Z,92.09
2024-01-15T02:01:01.223Z,93.21
2024-01-15T02:03:29.772Z,94.31
2024-01-15T02:05:58.454Z,92.99
2024-01-15T02:08:26.323Z,93.74
2024-01-15T02:10:53.991Z,92.93
2024-01-15T02:13:22.482Z,92.83
2024-01-15T02:15:50.233Z,93.36
2024-01-15T02:18:19.619Z,94.29
2024-01-15T02:20:47.376Z,94.98
2024-01-15T02:23:17.232Z,94.29
2024-01-15T02:25:46.733Z,94.62
2024-01-15T02:28:16.386Z,93.77
2024-01-15T02:30:45.032Z,93.43
2024-01-15T02:33:14.490Z,92.86
2024-01-15T02:35:42.482Z,92.37
2024-01-15T02:38:10.587Z,91.97
2024-01-15T02:40:40.583Z,91.60
2024-01-15T02:43:08.232Z,92.22
2024-01-15T02:45:35.970Z,93.11
2024-01-15T02:48:03.789Z,93.88
2024-01-15T02:50:31.572Z,92.59
2024-01-15T02:52:59.247Z,91.96
2024-01-15T02:55:26.930Z,91.58
2024-01-15T02:57:56.126Z,90.35
2024-01-15T03:00:23.845Z,90.91
2024-01-15T03:02:53.151Z,91.15
2024-01-15T03:05:21.262Z,90.01
2024-01-15T03:07:48.981Z,90.12
2024-01-15T03:10:17.163Z,89.53
2024-01-15T03:12:44.884Z,89.91
2024-01-15T03:15:14.212Z,90.02
2024-01-15T03:17:43.933Z,90.22
2024-01-15T03:20:13.284Z,89.28
2024-01-15T03:22:41.051Z,91.53
2024-01-15T03:25:09.427Z,90.57
2024-01-15T03:27:37.146Z,91.53
2024-01-15T03:30:05.313Z,91.58
2024-01-15T03:32:34.837Z,91.13
2024-01-15T03:35:02.609Z,91.86
2024-01-15T03:37:30.309Z,91.80
2024-01-15T03:39:58.491Z,91.72
2024-01-15T03:42:26.297Z,91.94
2024-01-15T03:44:53.947Z,92.31
2024-01-15T03:47:21.973Z,91.78
2024-01-15T03:49:51.063Z,91.12
2024-01-15T03:52:18.737Z,91.49
2024-01-15T03:54:46.416Z,90.32
2024-01-15T03:57:14.088Z,91.06
2024-01-15T03:59:42.724Z,91.02
2024-01-15T04:02:10.416Z,90.47
2024-01-15T04:04:38.303Z,91.21
2024-01-15T04:07:07.561Z,90.19
2024-01-15T04:09:35.375Z,90.42
2024-01-15T04:12:03.084Z,92.07
2024-01-15T04:14:30.766Z,90.31
2024-01-15T04:16:59.663Z,89.05
2024-01-15T04:19:27.350Z,89.52
2024-01-15T04:21:55.028Z,89.91
2024-01-15T04:24:24.289Z,89.29
2024-01-15T04:26:51.997Z,88.21
2024-01-15T04:29:19.657Z,89.22
2024-01-15T04:31:47.536Z,88.85
2024-01-15T04:34:15.327Z,89.13
2024-01-15T04:36:43.177Z,90.59
2024-01-15T04:39:12.699Z,90.28
2024-01-15T04:41:41.744Z,90.51
2024-01-15T04:44:09.424Z,89.10
2024-01-15T04:46:37.091Z,88.20
2024-01-15T04:49:04.832Z,88.59
2024-01-15T04:51:32.756Z,89.49
2024-01-15T04:54:00.620Z,88.84
2024-01-15T04:56:28.254Z,89.00
2024-01-15T04:58:57.302Z,90.25
2024-01-15T05:01:25.014Z,89.19
2024-01-15T05:03:52.873Z,89.72
2024-01-15T05:06:20.762Z,89.52
2024-01-15T05:08:48.475Z,88.97
2024-01-15T05:11:16.298Z,89.63
2024-01-15T05:13:43.962Z,90.33
2024-01-15T05:16:12.932Z,90.46
2024-01-15T05:18:40.730Z,89.80
2024-01-15T05:21:08.482Z,90.02
2024-01-15T05:23:37.313Z,89.44
2024-01-15T05:26:05.235Z,88.64
2024-01-15T05:28:32.944Z,90.24
2024-01-15T05:31:00.770Z,89.00
2024-01-15T05:33:29.937Z,88.72
2024-01-15T05:35:59.599Z,90.87
2024-01-15T05:38:27.408Z,90.48
2024-01-15T05:40:55.077Z,90.33
2024-01-15T05:43:22.756Z,91.21
2024-01-15T05:45:50.430Z,90.62
2024-01-15T05:48:18.272Z,91.76
2024-01-15T05:50:47.321Z,91.41
2024-01-15T05:53:15.752Z,90.22
2024-01-15T05:55:43.443Z,89.90
2024-01-15T05:58:11.113Z,90.80
2024-01-15T06:00:39.481Z,90.59
2024-01-15T06:03:08.057Z,90.03
2024-01-15T06:05:35.804Z,90.38
2024-01-15T06:08:05.093Z,89.94
2024-01-15T06:10:32.734Z,90.02
2024-01-15T06:13:00.378Z,91.26
2024-01-15T06:15:28.065Z,91.75
2024-01-15T06:17:55.916Z,90.77
2024-01-15T06:20:23.817Z,92.31
2024-01-15T06:22:51.489Z,90.61
2024-01-15T06:25:20.537Z,89.57
2024-01-15T06:27:48.244Z,89.87
2024-01-15T06:30:16.762Z,90.01
2024-01-15T06:32:44.710Z,89.23
2024-01-15T06:35:12.887Z,88.46
2024-01-15T06:37:40.645Z,89.26
2024-01-15T06:40:10.081Z,88.87
2024-01-15T06:42:39.139Z,89.19
2024-01-15T06:45:08.057Z,89.16
2024-01-15T06:47:35.825Z,89.48
2024-01-15T06:50:03.572Z,88.79
2024-01-15T06:52:31.284Z,88.09
2024-01-15T06:54:58.978Z,88.63
2024-01-15T06:57:26.687Z,88.24
2024-01-15T06:59:55.726Z,87.12
2024-01-15T07:02:23.480Z,88.17
2024-01-15T07:04:51.160Z,87.31
2024-01-15T07:07:18.870Z,87.39
2024-01-15T07:09:46.610Z,87.78
2024-01-15T07:12:14.304Z,85.65
2024-01-15T07:14:41.955Z,85.82
2024-01-15T07:17:11.130Z,85.63
2024-01-15T07:19:38.917Z,85.73
2024-01-15T07:22:06.751Z,85.77
2024-01-15T07:24:35.315Z,85.85
2024-01-15T07:27:05.697Z,86.02
2024-01-15T07:29:34.192Z,86.89
2024-01-15T07:32:02.517Z,87.02
2024-01-15T07:34:31.776Z,86.85
2024-01-15T07:37:00.103Z,87.57
2024-01-15T07:39:30.075Z,87.06
2024-01-15T07:41:58.016Z,87.03
2024-01-15T07:44:25.688Z,86.39
2024-01-15T07:46:53.428Z,85.29
2024-01-15T07:49:21.314Z,85.21
2024-01-15T07:51:50.401Z,84.25
2024-01-15T07:54:18.138Z,84.77
2024-01-15T07:56:59.409Z,84.79
2024-01-15T07:59:27.132Z,85.51
2024-01-15T08:01:55.471Z,86.44
2024-01-15T08:04:23.619Z,86.15
2024-01-15T08:06:52.985Z,86.84
2024-01-15T08:09:20.890Z,86.04
2024-01-15T08:11:48.565Z,87.82
2024-01-15T08:14:16.307Z,89.23
2024-01-15T08:16:45.076Z,88.32
2024-01-15T08:19:13.109Z,89.07
2024-01-15T08:21:41.173Z,89.18
2024-01-15T08:24:10.722Z,88.88
2024-01-15T08:26:38.439Z,88.99
2024-01-15T08:29:06.092Z,89.58
2024-01-15T08:31:33.958Z,89.85
2024-01-15T08:34:02.867Z,89.24
2024-01-15T08:36:31.744Z,89.87
2024-01-15T08:38:59.410Z,90.18
2024-01-15T08:41:28.412Z,89.70
2024-01-15T08:43:56.076Z,88.99
2024-01-15T08:46:23.724Z,88.60
2024-01-15T08:48:52.246Z,89.79
2024-01-15T08:51:20.661Z,89.04
2024-01-15T08:53:48.358Z,90.50
2024-01-15T08:56:16.075Z,90.14
2024-01-15T08:58:47.464Z,90.15
2024-01-15T09:01:15.740Z,90.11
2024-01-15T09:03:43.974Z,91.04
2024-01-15T09:06:12.419Z,90.54
2024-01-15T09:08:40.075Z,91.44
2024-01-15T09:11:07.723Z,90.84
2024-01-15T09:13:35.357Z,91.16
2024-01-15T09:16:04.886Z,88.67
2024-01-15T09:18:32.936Z,88.76
2024-01-15T09:21:01.222Z,88.97
2024-01-15T09:23:29.736Z,89.26
2024-01-15T09:25:57.634Z,88.83
2024-01-15T09:28:25.287Z,89.12
2024-01-15T09:30:53.014Z,90.59
2024-01-15T09:33:22.146Z,90.53
2024-01-15T09:35:49.887Z,89.12
2024-01-15T09:38:19.463Z,89.95
2024-01-15T09:40:48.525Z,90.50
2024-01-15T09:43:16.915Z,91.02
2024-01-15T09:45:46.144Z,90.71
2024-01-15T09:48:14.564Z,89.85
2024-01-15T09:50:43.958Z,90.42
2024-01-15T09:53:11.997Z,92.12
2024-01-15T09:55:39.851Z,90.05
2024-01-15T09:58:07.527Z,89.61
2024-01-15T10:00:37.952Z,89.59
2024-01-15T10:03:07.629Z,89.52
2024-01-15T10:05:35.382Z,92.24
2024-01-15T10:08:06.494Z,92.29
2024-01-15T10:10:34.196Z,92.12
2024-01-15T10:13:02.136Z,90.25
2024-01-15T10:15:30.042Z,90.87
2024-01-15T10:17:57.916Z,90.27
2024-01-15T10:20:25.675Z,90.63
2024-01-15T10:22:53.422Z,90.71
2024-01-15T10:25:26.803Z,90.07
2024-01-15T10:28:02.849Z,90.90
2024-01-15T10:30:31.021Z,91.63
2024-01-15T10:33:03.261Z,90.32
2024-01-15T10:35:32.888Z,89.19
2024-01-15T10:38:00.992Z,90.48
2024-01-15T10:40:30.618Z,88.24
2024-01-15T10:42:58.509Z,88.16
2024-01-15T10:45:27.004Z,87.75
2024-01-15T10:47:59.990Z,88.00
2024-01-15T10:50:28.200Z,89.42
2024-01-15T10:52:55.972Z,89.90
2024-01-15T10:55:25.311Z,89.01
2024-01-15T10:57:57.798Z,88.59
2024-01-15T11:00:26.396Z,88.97
2024-01-15T11:02:56.619Z,88.68
2024-01-15T11:05:24.603Z,88.42
2024-01-15T11:07:52.278Z,89.39
2024-01-15T11:10:42.862Z,87.11
2024-01-15T11:13:15.711Z,88.69
2024-01-15T11:16:03.309Z,89.69
2024-01-15T11:18:32.571Z,89.09
2024-01-15T11:21:22.929Z,89.32
2024-01-15T11:23:54.297Z,89.58
2024-01-15T11:26:40.030Z,89.73
2024-01-15T11:29:10.387Z,87.94
2024-01-15T11:32:05.815Z,89.19
2024-01-15T11:34:59.223Z,89.39
2024-01-15T11:37:28.344Z,88.33
2024-01-15T11:39:55.809Z,89.57
2024-01-15T11:42:24.958Z,88.65
2024-01-15T11:44:55.573Z,88.14
2024-01-15T11:48:00.567Z,89.63
2024-01-15T11:50:31.816Z,88.85
2024-01-15T11:53:06.715Z,88.81
2024-01-15T11:55:37.481Z,86.59
2024-01-15T11:58:10.556Z,87.94
2024-01-15T12:00:43.889Z,89.64
2024-01-15T12:03:12.189Z,89.07
2024-01-15T12:05:40.392Z,87.74
2024-01-15T12:08:11.788Z,88.81
2024-01-15T12:10:41.750Z,87.51
2024-01-15T12:13:13.255Z,85.75
2024-01-15T12:15:43.375Z,85.96
2024-01-15T12:18:15.671Z,86.60
2024-01-15T12:20:44.901Z,86.34
2024-01-15T12:23:14.400Z,85.30
2024-01-15T12:25:42.702Z,84.96
2024-01-15T12:28:11.247Z,83.76
2024-01-15T12:30:39.570Z,84.16
2024-01-15T12:33:10.634Z,84.74
2024-01-15T12:35:39.310Z,83.93
2024-01-15T12:38:07.115Z,84.64
2024-01-15T12:40:37.481Z,83.66
2024-01-15T12:43:07.491Z,84.52
2024-01-15T12:45:36.755Z,84.22
2024-01-15T12:48:05.501Z,83.45
2024-01-15T12:50:35.701Z,84.90
2024-01-15T12:53:03.600Z,84.66
2024-01-15T12:55:31.240Z,85.08
2024-01-15T12:57:58.974Z,84.48
2024-01-15T13:00:27.391Z,84.60
2024-01-15T13:02:55.852Z,84.35
2024-01-15T13:05:25.468Z,85.11
2024-01-15T13:07:54.831Z,86.00
2024-01-15T13:10:24.895Z,86.09
2024-01-15T13:12:54.108Z,85.80
2024-01-15T13:15:21.895Z,85.20
2024-01-15T13:17:49.541Z,84.50
2024-01-15T13:20:17.499Z,84.76
2024-01-15T13:22:46.650Z,85.08
2024-01-15T13:25:17.269Z,85.49
2024-01-15T13:27:45.172Z,84.86
2024-01-15T13:30:14.309Z,85.01
2024-01-15T13:32:42.324Z,85.62
2024-01-15T13:35:14.088Z,85.93
2024-01-15T13:37:42.410Z,85.33
2024-01-15T13:40:17.814Z,84.92
2024-01-15T13:42:48.396Z,85.18
2024-01-15T13:45:16.640Z,84.73
2024-01-15T13:47:45.426Z,84.13
2024-01-15T13:50:13.683Z,83.11
2024-01-15T13:52:41.662Z,82.76
2024-01-15T13:55:10.425Z,83.34
2024-01-15T13:57:38.650Z,84.04
2024-01-15T14:00:12.732Z,83.87
2024-01-15T14:02:41.096Z,84.18
2024-01-15T14:05:09.509Z,84.25
2024-01-15T14:07:37.243Z,84.35
2024-01-15T14:10:05.838Z,84.57
2024-01-15T14:12:33.822Z,84.35
2024-01-15T14:15:01.537Z,84.92
2024-01-15T14:17:30.958Z,86.36
2024-01-15T14:19:58.804Z,85.50
2024-01-15T14:22:26.475Z,85.39
2024-01-15T14:24:55.339Z,85.98
2024-01-15T14:27:23.730Z,86.12
2024-01-15T14:29:51.453Z,85.38
2024-01-15T14:32:19.067Z,85.17
2024-01-15T14:34:49.216Z,84.91
2024-01-15T14:37:16.996Z,84.39
2024-01-15T14:39:44.659Z,84.21
2024-01-15T14:42:12.388Z,84.65
2024-01-15T14:44:42.496Z,85.08
2024-01-15T14:47:10.200Z,84.49
2024-01-15T14:49:38.066Z,84.12
2024-01-15T14:52:08.192Z,84.23
2024-01-15T14:54:35.983Z,84.45
2024-01-15T14:57:03.667Z,85.78
2024-01-15T14:59:31.311Z,85.49
2024-01-15T15:01:59.047Z,84.92
2024-01-15T15:04:26.847Z,84.90
2024-01-15T15:06:54.816Z,85.31
2024-01-15T15:09:24.065Z,85.70
2024-01-15T15:11:53.275Z,85.90
2024-01-15T15:14:21.504Z,86.01
2024-01-15T15:16:49.445Z,85.55
2024-01-15T15:19:18.786Z,85.56
2024-01-15T15:21:47.253Z,84.85
2024-01-15T15:24:14.979Z,85.49
2024-01-15T15:26:44.541Z,85.67
2024-01-15T15:29:12.547Z,85.60
2024-01-15T15:31:40.230Z,86.32
2024-01-15T15:34:07.990Z,87.01
2024-01-15T15:36:35.701Z,86.12
2024-01-15T15:39:03.516Z,85.32
2024-01-15T15:41:31.230Z,85.82
2024-01-15T15:44:00.261Z,86.21
2024-01-15T15:46:27.924Z,86.58
2024-01-15T15:48:56.661Z,86.29
2024-01-15T15:51:24.493Z,86.32
2024-01-15T15:53:52.889Z,86.36
2024-01-15T15:56:20.595Z,86.10
2024-01-15T15:58:48.280Z,85.33
2024-01-15T16:01:17.742Z,85.12
2024-01-15T16:03:45.629Z,85.37
2024-01-15T16:06:14.806Z,85.45
2024-01-15T16:08:42.580Z,85.51
2024-01-15T16:11:10.268Z,85.48
2024-01-15T16:13:37.908Z,85.36
2024-01-15T16:23:09.618Z,84.29
2024-01-15T16:23:22.810Z,84.18
2024-01-15T16:23:37.715Z,84.53
2024-01-15T16:24:37.968Z,85.26
2024-01-15T16:29:41.873Z,85.50
2024-01-15T16:32:09.568Z,86.10
2024-01-15T16:34:38.665Z,86.79
2024-01-15T16:37:07.566Z,86.43
2024-01-15T16:39:35.840Z,86.54
2024-01-15T16:42:03.506Z,87.03
2024-01-15T16:44:31.730Z,85.40
2024-01-15T16:47:03.711Z,85.53
2024-01-15T16:49:33.738Z,86.31
2024-01-15T16:52:06.647Z,85.69
2024-01-15T16:54:36.357Z,85.67
2024-01-15T16:57:04.435Z,85.79
2024-01-15T16:59:32.183Z,85.60
2024-01-15T17:01:59.896Z,85.57
2024-01-15T17:04:27.553Z,85.85
2024-01-15T17:06:55.233Z,85.97
2024-01-15T17:09:24.333Z,86.70
2024-01-15T17:11:51.993Z,86.19
2024-01-15T17:14:19.929Z,86.43
2024-01-15T17:16:49.016Z,86.31
2024-01-15T17:19:17.160Z,86.37
2024-01-15T17:21:44.940Z,86.61
2024-01-15T17:24:12.590Z,86.55
2024-01-15T17:26:41.679Z,86.21
2024-01-15T17:29:09.327Z,85.45
2024-01-15T17:31:37.038Z,85.00
2024-01-15T17:34:05.274Z,85.32
2024-01-15T17:36:33.493Z,86.71
2024-01-15T17:39:01.314Z,87.10
2024-01-15T17:41:29.024Z,87.76
2024-01-15T17:43:58.057Z,87.10
2024-01-15T17:46:27.414Z,87.63
2024-01-15T17:48:56.750Z,88.06
2024-01-15T17:51:24.596Z,88.46
2024-01-15T17:53:52.325Z,89.09
2024-01-15T17:56:20.114Z,88.20
2024-01-15T17:58:47.775Z,87.34
2024-01-15T18:01:16.838Z,86.24
2024-01-15T18:03:44.513Z,86.35
2024-01-15T18:06:12.221Z,87.07
2024-01-15T18:08:41.188Z,86.79
2024-01-15T18:11:09.293Z,87.61
2024-01-15T18:13:36.975Z,87.52
2024-01-15T18:16:04.789Z,87.40
2024-01-15T18:18:33.845Z,88.41
2024-01-15T18:21:02.638Z,88.31
2024-01-15T18:23:30.355Z,88.30
2024-01-15T18:25:58.116Z,88.53
2024-01-15T18:28:25.773Z,88.08
2024-01-15T18:30:53.409Z,87.04
2024-01-15T18:33:23.831Z,87.24
2024-01-15T18:35:53.152Z,87.68
2024-01-15T18:38:21.608Z,87.78
2024-01-15T18:40:49.308Z,87.58
2024-01-15T18:43:16.949Z,88.92
2024-01-15T18:45:44.615Z,89.20
2024-01-15T18:48:12.409Z,90.69
2024-01-15T18:50:40.645Z,90.58
2024-01-15T18:53:09.714Z,90.52
2024-01-15T18:55:37.650Z,90.69
2024-01-15T18:58:05.625Z,90.91
2024-01-15T19:00:33.503Z,90.44
2024-01-15T19:03:02.276Z,91.50
2024-01-15T19:05:31.672Z,92.88
2024-01-15T19:08:00.572Z,91.81
2024-01-15T19:10:29.694Z,90.85
2024-01-15T19:12:57.475Z,89.96
2024-01-15T19:15:25.128Z,91.62
2024-01-15T19:17:52.870Z,91.76
2024-01-15T19:20:20.876Z,91.21
2024-01-15T19:22:49.262Z,93.75
2024-01-15T19:25:17.036Z,93.60
2024-01-15T19:27:47.391Z,92.43
2024-01-15T19:30:17.372Z,91.56
2024-01-15T19:32:45.414Z,91.53
2024-01-15T19:35:13.217Z,91.81
2024-01-15T19:37:40.896Z,90.86
2024-01-15T19:40:09.589Z,91.93
2024-01-15T19:42:37.269Z,92.70
2024-01-15T19:45:07.648Z,92.65
2024-01-15T19:47:35.505Z,93.25
2024-01-15T19:50:03.412Z,94.00
2024-01-15T19:52:31.118Z,94.70
2024-01-15T19:54:58.829Z,93.28
2024-01-15T19:57:26.615Z,92.31
2024-01-15T19:59:55.541Z,93.00
2024-01-15T20:02:24.665Z,92.93
2024-01-15T20:04:53.373Z,93.28
2024-01-15T20:07:21.259Z,94.66
2024-01-15T20:09:49.048Z,93.92
2024-01-15T20:12:16.768Z,92.97
2024-01-15T20:14:44.453Z,93.23
2024-01-15T20:19:42.037Z,92.66
2024-01-15T20:22:09.929Z,92.61
2024-01-15T20:24:37.670Z,91.12
2024-01-15T20:27:05.811Z,91.72
2024-01-15T20:29:33.636Z,90.98
2024-01-15T20:32:01.347Z,91.34
2024-01-15T20:34:29.311Z,91.34
2024-01-15T20:36:58.358Z,90.33
2024-01-15T20:39:25.984Z,89.76
2024-01-15T20:41:53.671Z,89.90
2024-01-15T20:44:22.390Z,90.17
2024-01-15T20:46:50.671Z,89.96
2024-01-15T20:49:18.684Z,90.78
2024-01-15T20:51:46.445Z,89.54
2024-01-15T20:54:15.488Z,89.68
2024-01-15T20:56:43.222Z,90.45
2024-01-15T20:59:10.947Z,89.36
2024-01-15T21:01:38.928Z,89.48
2024-01-15T21:04:07.628Z,88.96
2024-01-15T21:06:37.811Z,88.63
2024-01-15T21:09:06.622Z,88.65
2024-01-15T21:11:35.709Z,88.37
2024-01-15T21:14:04.470Z,88.39
2024-01-15T21:16:32.185Z,89.45
2024-01-15T21:19:02.156Z,88.14
2024-01-15T21:21:30.225Z,88.21
2024-01-15T21:23:57.854Z,87.73
2024-01-15T21:26:25.510Z,87.74
2024-01-15T21:28:54.528Z,87.57
2024-01-15T21:31:22.182Z,86.90
2024-01-15T21:33:50.521Z,86.95
2024-01-15T21:36:18.213Z,86.86
2024-01-15T21:38:46.182Z,86.94
2024-01-15T21:41:14.144Z,87.01
2024-01-15T21:43:42.246Z,87.27
2024-01-15T21:46:11.287Z,87.12
2024-01-15T21:48:42.361Z,87.60
2024-01-15T21:51:11.226Z,88.43
2024-01-15T21:53:39.077Z,86.91
2024-01-15T21:56:07.677Z,87.13
2024-01-15T21:58:35.403Z,87.61
2024-01-15T22:01:03.089Z,88.30
2024-01-15T22:03:32.115Z,87.98
2024-01-15T22:05:59.969Z,87.42
2024-01-15T22:08:27.741Z,87.08
2024-01-15T22:10:55.416Z,87.54
2024-01-15T22:13:23.144Z,87.86
2024-01-15T22:15:50.796Z,88.49
2024-01-15T22:18:18.566Z,88.24
2024-01-15T22:20:47.774Z,87.74
2024-01-15T22:23:15.543Z,88.28
2024-01-15T22:25:43.246Z,88.27
2024-01-15T22:28:11.035Z,87.69
2024-01-15T22:30:39.336Z,87.45
2024-01-15T22:33:07.445Z,86.88
2024-01-15T22:35:35.207Z,86.54
2024-01-15T22:38:04.257Z,85.86
2024-01-15T22:40:32.903Z,86.58
2024-01-15T22:43:00.613Z,86.69
2024-01-15T22:45:28.628Z,86.74
2024-01-15T22:47:56.569Z,86.27
2024-01-15T22:50:24.317Z,88.68
2024-01-15T22:52:52.161Z,87.74
2024-01-15T22:55:21.130Z,87.33
2024-01-15T22:57:48.781Z,86.73
2024-01-15T23:00:19.995Z,85.76
2024-01-15T23:02:48.096Z,86.46
2024-01-15T23:05:17.174Z,86.18
2024-01-15T23:07:45.132Z,85.47
2024-01-15T23:10:14.963Z,85.34
2024-01-15T23:12:44.230Z,84.95
2024-01-15T23:15:11.935Z,84.12
2024-01-15T23:17:40.053Z,83.60
2024-01-15T23:20:09.803Z,83.31
2024-01-15T23:22:37.552Z,83.91
2024-01-15T23:25:05.998Z,83.70
2024-01-15T23:27:33.734Z,83.49
2024-01-15T23:30:05.047Z,83.93
2024-01-15T23:32:33.315Z,83.03
2024-01-15T23:35:01.394Z,83.92
2024-01-15T23:37:29.228Z,84.18
2024-01-15T23:39:57.085Z,84.15
2024-01-15T23:42:24.775Z,84.83
2024-01-15T23:44:52.486Z,84.79
2024-01-15T23:47:21.537Z,84.58
2024-01-15T23:49:49.193Z,84.17
2024-01-15T23:52:16.931Z,84.08
2024-01-15T23:54:44.866Z,84.44
2024-01-15T23:57:12.542Z,83.42
2024-01-15T23:59:40.635Z,84.64
